Latest Weather Observations for Noarlunga

IDS60901

Issued at 3:11 pm CST Monday 4 May 2026 (issued every 10 minutes, with the page automatically refreshed every 10 minutes)

About weather observations | Map of Adelaide area stations | Latest observations for Adelaide area | Other Formats
Station Details ID: 023885 Name: NOARLUNGA Lat: -35.16 Lon: 138.51 Height: 55.0 m
Data from the previous 72 hours. | See also: Recent months at Noarlunga
Date/Time
CST
Temp
°C
App
Temp
°C
Dew
Point
°C
Rel
Hum
%
Delta-T
°C
Wind Press
QNH
hPa
Press
MSL
hPa
Rain since
9am
mm
Dir  Spd
km/h
Gust
km/h
Spd
kts
Gust
kts
04/03:00pm 18.4 15.6 11.5 64 3.8 W 17 28 9 15 - - 0.0
04/02:30pm 18.1 14.9 11.9 67 3.4 W 20 32 11 17 - - 0.0
04/02:00pm 18.5 16.0 12.3 67 3.5 W 17 28 9 15 - - 0.0
04/01:30pm 18.2 15.7 12.2 68 3.3 W 17 28 9 15 - - 0.0
04/01:00pm 18.6 16.9 12.4 67 3.5 WSW 13 28 7 15 - - 0.0
04/12:30pm 18.1 15.1 12.1 68 3.3 WSW 19 30 10 16 - - 0.0
04/12:00pm 17.8 15.1 11.8 68 3.3 WSW 17 28 9 15 - - 0.0
04/11:30am 17.4 14.2 11.4 68 3.3 WSW 19 33 10 18 - - 0.0
04/11:00am 17.7 14.8 12.4 71 2.9 WSW 19 32 10 17 - - 0.0
04/10:30am 17.2 14.1 12.1 72 2.8 WSW 20 35 11 19 - - 0.0
04/10:00am 16.8 14.2 12.1 74 2.6 WSW 17 33 9 18 - - 0.0
04/09:30am 16.4 13.7 11.8 74 2.5 WSW 17 30 9 16 - - 0.0
04/09:00am 16.4 13.9 12.2 76 2.3 WSW 17 30 9 16 - - 4.4
04/08:30am 15.5 12.9 11.9 79 2.0 WSW 17 28 9 15 - - 4.4
04/08:00am 15.4 12.7 11.6 78 2.1 WSW 17 28 9 15 - - 4.4
04/07:30am 15.3 12.6 11.7 79 1.9 WSW 17 30 9 16 - - 4.2
04/07:00am 15.2 12.5 11.8 80 1.8 WSW 17 28 9 15 - - 4.2
04/06:30am 14.8 12.3 14.0 95 0.5 W 20 35 11 19 - - 4.2
04/06:00am 14.6 11.9 13.6 94 0.6 WNW 20 33 11 18 - - 3.2
04/05:30am 14.2 12.4 13.2 94 0.6 W 15 30 8 16 - - 3.2
04/05:00am 15.3 11.9 12.4 83 1.6 WNW 22 39 12 21 - - 0.8
04/04:30am 15.3 11.2 12.6 84 1.5 WNW 26 37 14 20 - - 0.8
04/04:00am 15.3 11.1 12.4 83 1.6 WNW 26 39 14 21 - - 0.8
04/03:30am 15.2 11.3 12.2 82 1.6 WNW 24 39 13 21 - - 0.8
04/03:00am 15.2 10.8 11.8 80 1.8 WNW 26 43 14 23 - - 0.8
04/02:30am 15.2 11.3 12.2 82 1.6 WNW 24 37 13 20 - - 0.8
04/02:00am 15.1 10.8 12.1 82 1.6 NW 26 41 14 22 - - 0.8
04/01:30am 14.9 10.9 11.9 82 1.6 WNW 24 46 13 25 - - 0.8
04/01:00am 15.0 10.9 11.6 80 1.8 WNW 24 37 13 20 - - 0.8
04/12:30am 14.6 11.6 12.6 88 1.1 NW 20 33 11 18 - - 0.8
04/12:00am 14.8 11.8 12.5 86 1.3 NW 20 35 11 19 - - 0.8
 
Date/Time
CST
Temp
°C
App
Temp
°C
Dew
Point
°C
Rel
Hum
%
Delta-T
°C
Wind Press
QNH
hPa
Press
MSL
hPa
Rain since
9am
mm
Dir  Spd
km/h
Gust
km/h
Spd
kts
Gust
kts
03/11:30pm 14.5 10.5 11.7 83 1.5 NW 24 43 13 23 - - 0.6
03/11:00pm 15.3 11.5 11.3 77 2.1 NW 22 39 12 21 - - 0.2
03/10:30pm 15.6 10.8 10.4 71 2.7 NW 26 46 14 25 - - 0.2
03/10:00pm 15.6 11.1 10.2 70 2.8 NW 24 35 13 19 - - 0.2
03/09:30pm 15.4 11.1 10.8 74 2.4 NW 24 39 13 21 - - 0.2
03/09:00pm 15.6 10.9 10.8 73 2.6 NW 26 44 14 24 - - 0.2
03/08:30pm 15.6 10.9 10.8 73 2.6 NW 26 46 14 25 - - 0.2
03/08:00pm 15.6 10.9 10.8 73 2.6 WNW 26 39 14 21 - - 0.2
03/07:30pm 15.8 11.2 11.2 74 2.5 NW 26 39 14 21 - - 0.2
03/07:00pm 15.7 10.7 10.9 73 2.6 WNW 28 43 15 23 - - 0.2
03/06:30pm 15.7 12.1 11.9 78 2.1 NW 22 33 12 18 - - 0.2
03/06:00pm 15.1 11.6 12.2 83 1.6 NW 22 32 12 17 - - 0.2
03/05:30pm 13.8 9.1 12.0 89 1.0 WNW 28 50 15 27 - - 0.2
03/05:20pm 16.4 11.0 10.9 70 2.9 NW 30 52 16 28 - - 0.0
03/05:00pm 16.3 12.3 11.7 74 2.5 NW 24 37 13 20 - - 0.0
03/04:30pm 15.8 12.8 12.4 80 1.9 WNW 20 44 11 24 - - 0.0
03/04:18pm 16.4 11.7 12.0 75 2.4 NW 28 48 15 26 - - 0.0
03/04:00pm 17.1 12.5 11.2 68 3.2 NW 26 44 14 24 - - 0.0
03/03:50pm 17.2 12.3 11.2 68 3.2 NW 28 46 15 25 - - 0.0
03/03:30pm 16.7 12.3 11.8 73 2.7 NW 26 43 14 23 - - 0.0
03/03:00pm 16.1 13.3 12.7 80 1.9 NW 19 37 10 20 - - 0.0
03/02:30pm 14.7 9.9 11.5 81 1.7 NW 28 44 15 24 - - 0.0
03/02:00pm 16.2 11.3 11.4 73 2.6 NW 28 46 15 25 - - 0.0
03/01:59pm 16.2 11.3 11.2 72 2.7 NW 28 46 15 25 - - 0.0
03/01:30pm 17.5 13.2 10.9 65 3.6 NW 24 39 13 21 - - 0.0
03/01:13pm 17.0 11.5 10.4 65 3.5 NW 30 48 16 26 - - 0.0
03/01:00pm 17.2 11.6 10.1 63 3.8 NW 30 46 16 25 - - 0.0
03/12:57pm 17.4 12.3 10.5 64 3.7 NW 28 46 15 25 - - 0.0
03/12:30pm 16.0 11.5 12.6 80 1.9 NNW 28 43 15 23 - - 0.0
03/12:01pm 16.7 11.1 10.3 66 3.4 NW 30 57 16 31 - - 0.0
03/12:00pm 16.9 11.3 10.3 65 3.5 NW 30 46 16 25 - - 0.0
03/11:30am 17.0 11.5 10.4 65 3.5 NW 30 50 16 27 - - 0.0
03/11:04am 16.9 11.1 9.3 61 4.0 NW 30 50 16 27 - - 0.0
03/11:00am 17.4 11.3 9.8 61 4.0 NW 32 50 17 27 - - 0.0
03/10:30am 16.6 10.6 10.0 65 3.5 NW 32 52 17 28 - - 0.0
03/10:00am 16.3 10.2 9.7 65 3.5 NW 32 52 17 28 - - 0.0
03/09:30am 15.7 9.4 9.6 67 3.2 NW 33 56 18 30 - - 0.0
03/09:01am 15.6 10.1 9.3 66 3.3 NW 28 46 15 25 - - 0.0
03/09:00am 15.7 10.3 9.4 66 3.3 NW 28 44 15 24 - - 9.6
03/08:50am 15.6 10.0 8.8 64 3.5 NW 28 48 15 26 - - 9.6
03/08:30am 15.6 9.6 8.6 63 3.6 NW 30 43 16 23 - - 9.6
03/08:19am 15.7 9.7 8.7 63 3.6 NW 30 48 16 26 - - 9.6
03/08:00am 15.5 10.3 8.7 64 3.5 NW 26 44 14 24 - - 9.6
03/07:49am 15.3 9.6 8.5 64 3.5 NW 28 50 15 27 - - 9.6
03/07:30am 15.0 10.1 8.3 64 3.4 NW 24 37 13 20 - - 9.6
03/07:00am 15.0 9.6 8.0 63 3.5 NW 26 44 14 24 - - 9.6
03/06:40am 15.3 9.6 8.5 64 3.5 NW 28 46 15 25 - - 9.6
03/06:30am 15.3 10.1 9.0 66 3.2 NW 26 43 14 23 - - 9.6
03/06:00am 15.2 9.7 9.3 68 3.0 NW 28 43 15 23 - - 9.6
03/05:30am 15.1 10.5 9.7 70 2.8 NW 24 35 13 19 - - 9.6
03/05:00am 15.3 10.9 10.3 72 2.6 NW 24 41 13 22 - - 9.6
03/04:30am 15.1 11.0 10.1 72 2.6 NW 22 39 12 21 - - 9.6
03/04:00am 14.9 10.9 10.5 75 2.3 NW 22 35 12 19 - - 9.6
03/03:30am 15.2 11.2 10.4 73 2.5 NW 22 37 12 20 - - 9.6
03/03:00am 15.5 11.2 10.7 73 2.5 NW 24 39 13 21 - - 9.6
03/02:30am 15.6 11.4 11.0 74 2.5 NW 24 35 13 19 - - 9.6
03/02:00am 15.7 11.5 11.1 74 2.5 NW 24 41 13 22 - - 9.6
03/01:30am 15.8 11.6 11.2 74 2.5 NW 24 46 13 25 - - 9.6
03/01:25am 15.7 10.7 10.9 73 2.6 NW 28 46 15 25 - - 9.6
03/01:00am 15.8 11.6 11.0 73 2.6 NW 24 43 13 23 - - 9.6
03/12:30am 15.9 10.7 10.4 70 2.9 NW 28 43 15 23 - - 9.6
03/12:00am 16.0 11.8 11.0 72 2.7 NW 24 43 13 23 - - 9.6
 
Date/Time
CST
Temp
°C
App
Temp
°C
Dew
Point
°C
Rel
Hum
%
Delta-T
°C
Wind Press
QNH
hPa
Press
MSL
hPa
Rain since
9am
mm
Dir  Spd
km/h
Gust
km/h
Spd
kts
Gust
kts
02/11:30pm 15.9 10.4 10.4 70 2.9 NW 30 46 16 25 - - 9.6
02/11:00pm 16.2 12.1 10.1 67 3.2 NW 22 43 12 23 - - 9.6
02/10:30pm 16.3 11.0 9.7 65 3.5 NW 28 43 15 23 - - 9.6
02/10:00pm 16.5 13.0 10.8 69 3.1 NW 20 35 11 19 - - 9.6
02/09:30pm 15.6 13.6 14.0 90 0.9 NNW 17 30 9 16 - - 9.6
02/09:00pm 15.9 13.8 13.6 86 1.3 NNW 17 24 9 13 - - 9.6
02/08:30pm 15.7 13.0 13.5 87 1.2 N 20 33 11 18 - - 9.6
02/08:00pm 15.1 12.7 13.8 92 0.7 N 19 28 10 15 - - 9.6
02/07:30pm 15.1 13.6 14.1 94 0.6 N 15 22 8 12 - - 9.6
02/07:00pm 15.1 13.6 14.3 95 0.5 N 15 22 8 12 - - 9.6
02/06:30pm 15.3 13.8 14.3 94 0.6 N 15 24 8 13 - - 9.6
02/06:00pm 15.4 13.9 14.3 93 0.6 N 15 22 8 12 - - 9.6
02/05:30pm 16.4 14.9 14.1 86 1.3 NNW 15 24 8 13 - - 9.6
02/05:00pm 16.6 14.8 13.3 81 1.9 NNW 15 24 8 13 - - 9.6
02/04:30pm 15.9 14.2 13.7 87 1.2 NNW 15 24 8 13 - - 9.6
02/04:00pm 15.6 14.3 13.6 88 1.1 NNW 13 20 7 11 - - 9.6
02/03:30pm 15.3 13.4 14.2 93 0.6 NNW 17 24 9 13 - - 9.6
02/03:00pm 15.4 14.0 14.6 95 0.5 NNW 15 20 8 11 - - 9.0
02/02:30pm 15.4 14.9 14.9 97 0.3 NNW 11 19 6 10 - - 8.6
02/02:00pm 15.3 14.8 15.0 98 0.2 NW 11 20 6 11 - - 8.4
02/01:30pm 14.8 13.7 14.3 97 0.3 NW 13 22 7 12 - - 7.2
02/01:00pm 16.0 14.9 15.2 95 0.5 NW 15 22 8 12 - - 2.6
02/12:30pm 17.2 15.5 14.7 85 1.4 NW 17 24 9 13 - - 0.8
02/12:00pm 18.4 16.2 14.3 77 2.4 WNW 19 30 10 16 - - 0.4
02/11:30am 18.7 16.9 15.6 82 1.8 WNW 19 30 10 16 - - 0.4
02/11:00am 21.2 17.2 12.9 59 4.7 NNW 26 41 14 22 - - 0.4
02/10:30am 21.6 17.4 12.5 56 5.2 N 26 46 14 25 - - 0.4
02/10:00am 19.6 17.4 13.3 67 3.6 N 17 32 9 17 - - 0.4
02/09:30am 18.2 17.5 14.3 78 2.2 N 11 19 6 10 - - 0.4
02/09:00am 18.5 14.7 13.6 73 2.8 N 26 56 14 30 - - 0.6
02/08:47am 21.1 16.1 10.9 52 5.6 N 28 48 15 26 - - 0.0
02/08:30am 23.1 18.8 8.0 38 8.0 N 20 37 11 20 - - 0.0
02/08:00am 23.4 18.7 7.9 37 8.2 N 22 39 12 21 - - 0.0
02/07:30am 24.2 20.0 7.4 34 8.8 N 19 32 10 17 - - 0.0
02/07:00am 24.3 19.4 7.0 33 9.0 NNE 22 41 12 22 - - 0.0
02/06:30am 24.4 18.8 7.1 33 9.1 NNE 26 41 14 22 - - 0.0
02/06:00am 24.5 18.8 6.7 32 9.3 NNE 26 39 14 21 - - 0.0
02/05:30am 24.5 19.2 6.7 32 9.3 NNE 24 43 13 23 - - 0.0
02/05:00am 24.7 18.9 6.4 31 9.5 NNE 26 41 14 22 - - 0.0
02/04:30am 24.5 18.8 6.7 32 9.3 NNE 26 43 14 23 - - 0.0
02/04:00am 24.5 18.8 6.7 32 9.3 NNE 26 44 14 24 - - 0.0
02/03:47am 24.7 18.7 6.9 32 9.3 NNE 28 48 15 26 - - 0.0
02/03:30am 24.8 19.1 6.5 31 9.5 NNE 26 41 14 22 - - 0.0
02/03:01am 24.9 18.8 6.6 31 9.5 NNE 28 48 15 26 - - 0.0
02/03:00am 24.9 18.8 6.6 31 9.5 NNE 28 44 15 24 - - 0.0
02/02:30am 25.0 18.9 6.7 31 9.5 NNE 28 44 15 24 - - 0.0
02/02:00am 24.8 20.2 6.5 31 9.5 NNE 20 39 11 21 - - 0.0
02/01:30am 24.9 19.6 6.6 31 9.5 NNE 24 44 13 24 - - 0.0
02/01:00am 25.1 19.6 5.8 29 9.9 NNE 24 39 13 21 - - 0.0
02/12:30am 25.1 19.9 5.3 28 10.1 NNE 22 39 12 21 - - 0.0
02/12:00am 25.1 20.3 5.8 29 9.9 NNE 20 37 11 20 - - 0.0
 
Date/Time
CST
Temp
°C
App
Temp
°C
Dew
Point
°C
Rel
Hum
%
Delta-T
°C
Wind Press
QNH
hPa
Press
MSL
hPa
Rain since
9am
mm
Dir  Spd
km/h
Gust
km/h
Spd
kts
Gust
kts
01/11:30pm 25.4 20.3 6.1 29 10.0 NNE 22 37 12 20 - - 0.0
01/11:00pm 25.3 20.7 6.5 30 9.8 NNE 20 33 11 18 - - 0.0
01/10:30pm 25.3 20.4 7.0 31 9.6 NNE 22 35 12 19 - - 0.0
01/10:00pm 25.2 20.8 7.3 32 9.4 NNE 20 33 11 18 - - 0.0
01/09:30pm 25.4 20.5 7.1 31 9.6 NNE 22 35 12 19 - - 0.0
01/09:00pm 25.4 21.0 7.5 32 9.5 NNE 20 32 11 17 - - 0.0
01/08:30pm 25.1 21.3 7.7 33 9.2 NNE 17 28 9 15 - - 0.0
01/08:00pm 24.4 21.7 7.5 34 8.9 NE 11 17 6 9 - - 0.0
01/07:30pm 24.3 22.2 8.3 36 8.5 NE 9 17 5 9 - - 0.0
01/07:00pm 24.2 22.3 9.0 38 8.2 NE 9 13 5 7 - - 0.0
01/06:30pm 25.0 22.6 8.5 35 8.9 N 11 20 6 11 - - 0.0
01/06:00pm 25.1 22.8 9.0 36 8.7 N 11 15 6 8 - - 0.0
01/05:30pm 24.8 22.5 10.3 40 8.0 N 13 19 7 10 - - 0.0
01/05:00pm 25.1 22.8 10.6 40 8.1 NNW 13 20 7 11 - - 0.0
01/04:30pm 25.2 22.3 11.0 41 8.0 NNW 17 30 9 16 - - 0.0
01/04:00pm 25.9 22.4 10.1 37 8.8 NNW 19 32 10 17 - - 0.0
01/03:30pm 27.0 23.5 10.2 35 9.4 NNW 19 30 10 16 - - 0.0

Latest Capital City Observations: Canberra | Sydney | Melbourne | Brisbane | Adelaide | Perth | Hobart | Darwin

Other formats

Comma delimited format used in spreadsheet applications
http://www.bom.gov.au/fwo/IDS60901/IDS60901.94808.axf

JavaScript Object Notation format (JSON) in row-major order
http://www.bom.gov.au/fwo/IDS60901/IDS60901.94808.json

Data quality

Most of these data are generated automatically and are frequently updated. Quality checks on data are not normally performed. It is possible for incorrect values to appear. Refer to information at About Latest Weather Observations and please check the disclaimer before using these data.